Time;durP1;ratioP1;P1;durP2;ratioP2;P2;SDS_P1;SDS_P2;PMS_P1;PMS_P2;Temp;Humidity;BMP_temperature;BMP_pressure;BME280_temperature;BME280_humidity;BME280_pressure;Samples;Min_cycle;Max_cycle;Signal;HPM_P1;HPM_P2
2023/07/18 00:00:47;;;;;;;7.32;3.80;;;;;;;14.75;94.25;102049.44;5023914;28;20046;-78
2023/07/18 00:03:14;;;;;;;8.15;3.85;;;;;;;14.76;94.83;102045.81;5015729;28;20511;-79
2023/07/18 00:05:40;;;;;;;6.35;3.28;;;;;;;14.74;94.63;102055.69;4997732;28;20056;-79
2023/07/18 00:08:06;;;;;;;11.57;3.58;;;;;;;14.76;94.54;102045.81;5015177;28;20033;-79
2023/07/18 00:10:31;;;;;;;8.65;3.50;;;;;;;14.70;94.51;102044.47;5015062;28;20048;-78
2023/07/18 00:12:58;;;;;;;9.70;3.63;;;;;;;14.62;95.31;102048.63;5010576;28;20041;-77
2023/07/18 00:15:25;;;;;;;6.78;3.80;;;;;;;14.65;95.08;102049.25;5010311;28;20394;-79
2023/07/18 00:17:50;;;;;;;6.75;3.95;;;;;;;14.61;95.78;102046.94;5012933;28;20085;-78
2023/07/18 00:20:19;;;;;;;8.48;4.22;;;;;;;14.51;96.09;102049.41;5012018;28;20117;-79
2023/07/18 00:22:49;;;;;;;8.88;4.35;;;;;;;14.53;96.31;102054.59;4994094;28;20106;-80
2023/07/18 00:25:16;;;;;;;10.55;4.75;;;;;;;14.57;97.35;102053.41;4994606;28;20474;-79
2023/07/18 00:27:42;;;;;;;8.07;4.88;;;;;;;14.52;97.48;102058.19;5008034;28;20033;-79
2023/07/18 00:30:14;;;;;;;12.43;5.20;;;;;;;14.52;98.01;102060.84;4995748;28;20044;-79
2023/07/18 00:32:42;;;;;;;11.98;4.82;;;;;;;14.54;98.32;102064.22;5008544;28;20026;-80
2023/07/18 00:35:11;;;;;;;12.57;5.32;;;;;;;14.41;99.20;102054.47;4994099;28;20065;-79
2023/07/18 00:37:40;;;;;;;9.38;4.80;;;;;;;14.36;99.53;102053.94;4994762;28;20022;-79
2023/07/18 00:40:11;;;;;;;10.38;5.35;;;;;;;14.38;99.68;102052.03;5011969;28;20058;-79
2023/07/18 00:42:42;;;;;;;10.13;5.20;;;;;;;14.29;100.00;102055.31;5011232;28;20076;-78
2023/07/18 00:45:08;;;;;;;7.28;4.93;;;;;;;14.26;100.00;102052.88;5012481;28;20033;-78
2023/07/18 00:47:40;;;;;;;7.63;5.15;;;;;;;14.27;100.00;102059.03;5010652;28;20363;-78
2023/07/18 00:50:11;;;;;;;10.43;5.70;;;;;;;14.31;100.00;102045.47;5010145;28;20028;-78
2023/07/18 00:52:40;;;;;;;8.13;5.65;;;;;;;14.18;100.00;102049.94;5010825;28;20030;-78
2023/07/18 00:55:08;;;;;;;8.70;5.95;;;;;;;14.18;100.00;102049.09;5010381;28;20037;-78
2023/07/18 00:57:35;;;;;;;11.52;5.38;;;;;;;14.26;100.00;102042.31;4998974;28;20033;-80
2023/07/18 01:00:01;;;;;;;8.75;5.43;;;;;;;14.25;100.00;102035.31;5015008;28;20107;-77
2023/07/18 01:02:28;;;;;;;7.82;5.72;;;;;;;14.22;100.00;102038.19;5030551;28;20433;-78
2023/07/18 01:04:54;;;;;;;10.18;5.43;;;;;;;14.21;100.00;102043.59;5022308;28;20037;-80
2023/07/18 01:07:20;;;;;;;7.78;5.45;;;;;;;14.20;100.00;102037.44;5015096;28;20018;-78
2023/07/18 01:09:47;;;;;;;9.50;5.60;;;;;;;14.13;100.00;102041.47;5029804;28;20053;-79
2023/07/18 01:12:12;;;;;;;12.05;6.18;;;;;;;14.00;100.00;102038.81;5030926;28;20394;-78
2023/07/18 01:14:37;;;;;;;11.75;5.95;;;;;;;14.00;100.00;102036.16;5031131;28;20025;-79
2023/07/18 01:17:05;;;;;;;7.50;5.28;;;;;;;14.01;100.00;102039.69;5030395;28;20029;-79
2023/07/18 01:19:31;;;;;;;9.07;5.43;;;;;;;13.91;100.00;102030.66;5031315;28;20413;-79
2023/07/18 01:21:56;;;;;;;10.77;5.93;;;;;;;13.96;100.00;102036.50;5028482;28;20029;-78
2023/07/18 01:24:22;;;;;;;7.55;5.43;;;;;;;13.89;100.00;102030.78;5030638;28;20030;-78
2023/07/18 01:26:47;;;;;;;9.35;5.70;;;;;;;13.79;100.00;102033.22;5029405;28;20072;-78
2023/07/18 01:29:13;;;;;;;9.63;5.32;;;;;;;13.82;100.00;102029.50;5016860;28;20430;-78
2023/07/18 01:31:38;;;;;;;8.25;5.30;;;;;;;13.78;100.00;102028.88;5005135;28;20053;-78
2023/07/18 01:34:05;;;;;;;7.53;5.13;;;;;;;13.77;100.00;102035.13;4993564;28;20371;-77
2023/07/18 01:36:30;;;;;;;8.73;5.63;;;;;;;13.75;100.00;102031.75;5013277;28;20061;-78
2023/07/18 01:38:56;;;;;;;10.07;5.40;;;;;;;13.69;100.00;102015.44;5024997;28;20097;-80
2023/07/18 01:41:21;;;;;;;6.70;4.78;;;;;;;13.69;100.00;102018.09;5015742;28;20029;-77
2023/07/18 01:43:47;;;;;;;7.75;5.10;;;;;;;13.76;100.00;102014.91;5030874;28;20026;-79
2023/07/18 01:46:12;;;;;;;8.88;5.13;;;;;;;13.73;100.00;102009.84;5030164;28;20029;-79
2023/07/18 01:48:38;;;;;;;7.15;5.03;;;;;;;13.75;100.00;102015.88;5030917;28;20029;-79
2023/07/18 01:51:04;;;;;;;10.88;5.13;;;;;;;13.69;100.00;102010.16;5029584;28;20036;-79
2023/07/18 01:53:29;;;;;;;6.65;5.15;;;;;;;13.72;100.00;102002.84;5029987;28;20389;-78
2023/07/18 01:55:58;;;;;;;6.93;5.10;;;;;;;13.64;100.00;102013.13;5025199;28;20037;-79
2023/07/18 01:58:23;;;;;;;7.65;5.07;;;;;;;13.62;100.00;102006.25;5012308;28;20374;-78
2023/07/18 02:00:48;;;;;;;9.35;5.50;;;;;;;13.56;100.00;102004.00;5011615;28;20052;-79
2023/07/18 02:03:13;;;;;;;6.68;4.80;;;;;;;13.67;100.00;102004.13;5029304;28;20742;-79
2023/07/18 02:05:39;;;;;;;8.45;5.07;;;;;;;13.62;100.00;102004.44;5030275;28;20515;-79
2023/07/18 02:08:04;;;;;;;6.90;4.57;;;;;;;13.62;100.00;102007.09;5030165;28;20614;-79
2023/07/18 02:10:30;;;;;;;8.23;4.78;;;;;;;13.61;100.00;101997.47;5030498;28;20029;-79
2023/07/18 02:13:01;;;;;;;12.05;5.25;;;;;;;13.64;99.68;101996.41;5020443;28;20079;-79
2023/07/18 02:15:27;;;;;;;7.20;4.45;;;;;;;13.65;99.62;101998.09;5027072;28;20166;-79
2023/07/18 02:17:52;;;;;;;13.23;5.28;;;;;;;13.55;99.23;102002.28;5030497;28;20491;-78
2023/07/18 02:20:18;;;;;;;6.43;4.60;;;;;;;13.54;98.94;101998.81;5028533;28;20099;-78
2023/07/18 02:22:44;;;;;;;7.05;4.65;;;;;;;13.48;99.18;101997.44;5029326;28;20064;-80
2023/07/18 02:25:11;;;;;;;8.77;4.60;;;;;;;13.44;99.13;102000.38;5012463;28;20029;-79
2023/07/18 02:27:40;;;;;;;7.50;4.00;;;;;;;13.41;98.94;102000.59;5027225;28;20060;-79
2023/07/18 02:30:11;;;;;;;7.78;4.50;;;;;;;13.32;99.20;102006.50;5010222;28;20021;-80
2023/07/18 02:32:39;;;;;;;7.95;4.78;;;;;;;13.28;99.26;102000.59;5029285;28;20366;-78
2023/07/18 02:35:05;;;;;;;9.05;4.28;;;;;;;13.23;99.33;101996.56;5028886;28;20051;-79
2023/07/18 02:37:31;;;;;;;5.75;4.30;;;;;;;13.27;99.28;101998.88;5029028;28;20036;-79
2023/07/18 02:39:56;;;;;;;7.95;4.68;;;;;;;13.19;99.42;101995.88;4995198;28;20037;-78
2023/07/18 02:42:22;;;;;;;8.23;4.53;;;;;;;13.15;99.34;102005.78;5027388;28;20025;-79
2023/07/18 02:44:48;;;;;;;8.50;4.60;;;;;;;13.15;99.15;102000.50;5029134;28;20485;-78
2023/07/18 02:47:14;;;;;;;8.02;4.68;;;;;;;13.16;99.37;102007.47;5023854;28;20469;-79
2023/07/18 02:49:39;;;;;;;6.93;4.35;;;;;;;13.14;98.86;102003.25;5027946;28;20032;-79
2023/07/18 02:52:05;;;;;;;6.85;4.25;;;;;;;13.07;98.65;101992.22;5029089;28;20119;-79
2023/07/18 02:54:31;;;;;;;8.18;4.32;;;;;;;13.02;98.89;101989.06;5029702;28;20057;-78
2023/07/18 02:56:58;;;;;;;7.97;4.20;;;;;;;13.04;98.48;101997.72;5016090;28;20571;-78
2023/07/18 02:59:24;;;;;;;5.97;4.13;;;;;;;12.98;98.30;101992.84;5011892;28;20389;-78
2023/07/18 03:01:49;;;;;;;5.18;4.03;;;;;;;12.95;98.55;101998.34;5028661;28;20122;-79
2023/07/18 03:04:16;;;;;;;7.15;4.35;;;;;;;12.98;98.70;101998.13;5020548;28;20037;-78
2023/07/18 03:06:47;;;;;;;6.70;3.97;;;;;;;12.92;98.61;101995.91;5022132;28;20044;-79
2023/07/18 03:09:12;;;;;;;10.13;4.10;;;;;;;12.84;98.50;101990.28;5028507;28;20120;-78
2023/07/18 03:11:38;;;;;;;6.70;4.07;;;;;;;12.86;98.00;101989.22;5029811;28;20037;-79
2023/07/18 03:14:03;;;;;;;5.63;3.80;;;;;;;12.88;97.91;101986.47;5028937;28;20030;-78
2023/07/18 03:16:29;;;;;;;5.57;3.67;;;;;;;12.85;97.91;101989.31;5028294;28;20116;-78
2023/07/18 03:18:54;;;;;;;6.40;3.88;;;;;;;12.88;97.49;101991.75;5010699;28;20036;-78
2023/07/18 03:21:20;;;;;;;8.85;3.90;;;;;;;12.75;97.23;101991.69;5020916;28;20029;-79
2023/07/18 03:23:45;;;;;;;5.63;3.45;;;;;;;12.76;97.23;101987.25;4991756;28;20036;-80
2023/07/18 03:26:11;;;;;;;6.32;3.53;;;;;;;12.80;97.59;101994.03;5026637;28;20030;-78
2023/07/18 03:28:36;;;;;;;8.60;3.47;;;;;;;12.73;97.31;101990.09;5019275;28;20040;-80
2023/07/18 03:31:02;;;;;;;4.88;3.75;;;;;;;12.75;97.00;101990.84;5009289;28;20030;-80
2023/07/18 03:33:28;;;;;;;8.43;3.97;;;;;;;12.75;96.95;101982.91;5012978;28;20038;-79
2023/07/18 03:35:53;;;;;;;7.13;4.20;;;;;;;12.64;96.97;101988.91;5024582;28;20030;-79
2023/07/18 03:38:19;;;;;;;9.23;4.07;;;;;;;12.63;97.43;101981.94;5027989;28;20481;-79
2023/07/18 03:40:47;;;;;;;7.68;4.10;;;;;;;12.63;97.27;101992.50;5011826;28;20033;-79
2023/07/18 03:43:12;;;;;;;8.63;4.28;;;;;;;12.54;97.59;101985.16;5029386;28;20047;-79
2023/07/18 03:45:37;;;;;;;7.75;4.13;;;;;;;12.60;97.85;101991.84;5028484;28;20527;-80
2023/07/18 03:48:03;;;;;;;7.93;4.05;;;;;;;12.62;97.44;101989.94;5029260;28;20022;-79
2023/07/18 03:50:28;;;;;;;7.65;3.92;;;;;;;12.60;97.52;101983.91;5029042;28;20064;-79
2023/07/18 03:52:54;;;;;;;7.47;3.78;;;;;;;12.53;97.55;101984.31;5032586;28;20032;-80
2023/07/18 03:55:19;;;;;;;7.57;4.18;;;;;;;12.52;97.50;101979.97;5013230;28;20075;-79
2023/07/18 03:57:44;;;;;;;8.98;4.35;;;;;;;12.49;97.24;101985.47;5031482;28;20021;-79
2023/07/18 04:00:14;;;;;;;6.30;3.75;;;;;;;12.45;97.08;101983.13;5030757;28;20489;-79
2023/07/18 04:02:42;;;;;;;5.43;3.67;;;;;;;12.49;97.34;101980.19;5033323;28;20481;-78
2023/07/18 04:05:08;;;;;;;5.50;3.10;;;;;;;12.41;96.85;101981.63;5032432;28;20029;-78
2023/07/18 04:07:33;;;;;;;5.85;3.67;;;;;;;12.40;97.04;101974.63;5009866;28;20458;-79
2023/07/18 04:09:59;;;;;;;5.05;3.38;;;;;;;12.40;97.19;101969.34;5028395;28;20095;-77
2023/07/18 04:12:24;;;;;;;4.63;3.55;;;;;;;12.40;97.29;101961.41;5032016;28;20026;-79
2023/07/18 04:14:51;;;;;;;10.55;4.00;;;;;;;12.34;97.40;101967.09;5031794;28;20046;-79
2023/07/18 04:17:16;;;;;;;7.80;4.10;;;;;;;12.46;97.80;101958.41;5032829;28;20532;-79
2023/07/18 04:19:42;;;;;;;7.25;3.63;;;;;;;12.64;97.11;101961.66;5031136;28;20025;-79
2023/07/18 04:22:07;;;;;;;5.72;3.63;;;;;;;12.72;95.87;101964.63;5028608;28;20489;-78
2023/07/18 04:24:34;;;;;;;7.05;3.90;;;;;;;12.69;95.45;101959.56;5025589;28;20477;-78
2023/07/18 04:26:59;;;;;;;9.30;3.80;;;;;;;12.80;95.54;101962.34;5031047;28;20044;-78
2023/07/18 04:29:25;;;;;;;7.50;3.67;;;;;;;12.82;94.92;101958.69;5017268;28;20022;-79
2023/07/18 04:31:50;;;;;;;6.05;3.50;;;;;;;12.87;94.62;101963.66;5029177;28;20025;-78
2023/07/18 04:34:15;;;;;;;7.50;3.70;;;;;;;13.15;94.58;101957.38;5030236;28;20032;-79
2023/07/18 04:36:42;;;;;;;5.55;3.70;;;;;;;13.77;91.90;101960.22;5014848;28;20495;-77
2023/07/18 04:39:10;;;;;;;6.90;3.55;;;;;;;14.21;90.13;101958.88;5025203;28;20052;-81
2023/07/18 04:41:36;;;;;;;6.20;3.63;;;;;;;14.18;88.81;101962.59;5031278;28;20030;-78
2023/07/18 04:44:01;;;;;;;6.32;3.35;;;;;;;14.10;88.05;101957.84;5031855;28;20042;-78
2023/07/18 04:46:27;;;;;;;6.35;3.50;;;;;;;14.06;88.04;101958.19;5012559;28;20049;-78
2023/07/18 04:48:52;;;;;;;6.45;3.75;;;;;;;13.76;88.54;101947.94;5011682;28;20501;-78
2023/07/18 04:51:18;;;;;;;6.15;3.35;;;;;;;13.65;89.65;101956.63;5011651;28;20021;-78
2023/07/18 04:53:43;;;;;;;7.60;3.92;;;;;;;13.60;90.06;101966.66;5031966;28;20028;-79
2023/07/18 04:56:09;;;;;;;6.82;3.53;;;;;;;13.45;89.90;101959.78;5025497;28;20025;-79
2023/07/18 04:58:34;;;;;;;6.50;3.05;;;;;;;13.33;90.49;101956.19;5011553;28;20032;-80
2023/07/18 05:01:02;;;;;;;6.43;3.72;;;;;;;13.30;91.09;101952.91;5030564;28;20501;-79
2023/07/18 05:03:28;;;;;;;6.20;3.30;;;;;;;13.24;91.45;101946.22;5030513;28;20041;-79
2023/07/18 05:05:54;;;;;;;7.55;3.35;;;;;;;13.19;91.92;101950.94;5031731;28;20389;-78
2023/07/18 05:08:20;;;;;;;6.93;3.70;;;;;;;13.13;92.84;101959.25;5030591;28;20452;-78
2023/07/18 05:10:45;;;;;;;6.00;3.58;;;;;;;13.09;92.86;101953.34;5029650;28;20036;-80
2023/07/18 05:13:11;;;;;;;7.07;3.65;;;;;;;13.11;93.29;101955.88;5012226;28;20026;-79
2023/07/18 05:15:37;;;;;;;5.30;3.38;;;;;;;13.12;93.13;101955.78;5011916;28;20479;-78
2023/07/18 05:18:03;;;;;;;6.57;3.28;;;;;;;13.13;93.47;101957.47;5025972;28;20094;-79
2023/07/18 05:20:28;;;;;;;11.20;3.85;;;;;;;13.12;93.87;101957.56;5030822;28;20525;-78
2023/07/18 05:22:54;;;;;;;6.13;3.65;;;;;;;13.21;93.76;101953.50;5030843;28;20160;-77
2023/07/18 05:25:19;;;;;;;6.30;3.47;;;;;;;13.20;93.83;101954.44;5031628;28;20096;-81
2023/07/18 05:27:45;;;;;;;6.18;3.20;;;;;;;13.24;93.72;101950.69;5010446;28;20014;-80
2023/07/18 05:30:18;;;;;;;6.82;3.65;;;;;;;13.28;93.54;101952.16;5031959;28;20164;-74
2023/07/18 05:32:44;;;;;;;7.70;3.78;;;;;;;13.30;93.66;101951.09;5019402;28;20029;-74
2023/07/18 05:35:11;;;;;;;6.05;3.38;;;;;;;13.34;93.41;101944.66;5018773;28;20111;-73
2023/07/18 05:37:38;;;;;;;6.97;3.33;;;;;;;13.42;94.08;101950.25;5012673;28;20036;-73
2023/07/18 05:40:04;;;;;;;8.75;3.30;;;;;;;13.44;93.19;101953.66;5030823;28;20036;-73
2023/07/18 05:42:30;;;;;;;7.38;3.60;;;;;;;13.50;92.94;101957.66;5030119;28;20045;-73
2023/07/18 05:44:55;;;;;;;4.93;3.40;;;;;;;13.54;92.49;101943.28;5027833;28;20464;-72
2023/07/18 05:47:20;;;;;;;5.57;3.28;;;;;;;13.56;93.13;101948.44;5029724;28;20083;-73
2023/07/18 05:49:46;;;;;;;7.80;3.67;;;;;;;13.64;92.77;101952.28;5006883;28;20382;-73
2023/07/18 05:52:11;;;;;;;6.03;3.60;;;;;;;13.70;92.61;101957.16;5026434;28;20088;-72
2023/07/18 05:54:37;;;;;;;8.32;3.72;;;;;;;13.76;92.35;101955.88;5030232;28;20036;-72
2023/07/18 05:57:03;;;;;;;7.22;3.90;;;;;;;13.80;92.61;101950.25;5014189;28;20442;-73
2023/07/18 05:59:29;;;;;;;7.85;4.18;;;;;;;13.87;92.47;101955.13;5013928;28;20041;-72
2023/07/18 06:01:55;;;;;;;7.18;3.40;;;;;;;13.97;92.77;101961.44;5029696;28;20160;-73
2023/07/18 06:04:20;;;;;;;7.65;3.55;;;;;;;14.05;92.95;101959.97;5030130;28;20045;-72
2023/07/18 06:06:45;;;;;;;6.65;3.53;;;;;;;14.10;91.75;101962.28;5011639;28;20017;-72
2023/07/18 06:09:11;;;;;;;6.03;3.42;;;;;;;14.17;91.94;101963.53;5026254;28;20458;-72
2023/07/18 06:11:37;;;;;;;8.75;3.25;;;;;;;14.24;91.06;101970.09;5025753;28;20078;-74
2023/07/18 06:14:05;;;;;;;7.40;3.45;;;;;;;14.30;90.62;101956.41;5029790;28;20079;-72
2023/07/18 06:16:30;;;;;;;9.98;3.80;;;;;;;14.34;90.53;101959.69;5029038;28;20021;-72
2023/07/18 06:18:56;;;;;;;7.28;3.35;;;;;;;14.44;90.30;101965.22;5028014;28;20033;-71
2023/07/18 06:21:21;;;;;;;7.50;3.03;;;;;;;14.54;90.26;101960.94;5029470;28;20091;-72
2023/07/18 06:23:47;;;;;;;8.32;3.38;;;;;;;14.62;89.79;101956.75;5026173;28;20496;-72
2023/07/18 06:26:12;;;;;;;7.07;3.22;;;;;;;14.70;89.45;101959.69;5010732;28;20040;-71
2023/07/18 06:28:37;;;;;;;6.85;3.08;;;;;;;14.73;89.93;101950.66;5030319;28;20070;-72
2023/07/18 06:31:03;;;;;;;7.80;3.47;;;;;;;14.80;88.53;101951.06;5029429;28;20056;-73
2023/07/18 06:33:28;;;;;;;6.93;3.05;;;;;;;14.87;88.84;101958.47;5011226;28;20040;-73
2023/07/18 06:35:55;;;;;;;6.05;2.85;;;;;;;14.94;89.18;101951.75;5029777;28;20493;-73
2023/07/18 06:38:21;;;;;;;7.45;3.10;;;;;;;15.02;87.42;101956.47;5030376;28;20056;-73
2023/07/18 06:40:47;;;;;;;5.97;2.25;;;;;;;15.10;85.92;101956.72;5027441;28;20481;-73
2023/07/18 06:43:13;;;;;;;8.00;2.83;;;;;;;15.16;85.28;101958.06;5014375;28;20032;-73
2023/07/18 06:45:38;;;;;;;5.55;2.45;;;;;;;15.26;84.40;101956.44;4992966;28;20026;-73
2023/07/18 06:48:05;;;;;;;5.43;2.10;;;;;;;15.35;83.70;101955.72;5017133;28;20025;-73
2023/07/18 06:50:30;;;;;;;7.05;2.35;;;;;;;15.43;82.09;101955.13;5029986;28;20021;-74
2023/07/18 06:52:56;;;;;;;6.93;2.10;;;;;;;15.48;82.69;101956.47;5029931;28;20033;-73
2023/07/18 06:55:22;;;;;;;5.03;2.33;;;;;;;15.57;82.13;101947.78;5011551;28;20477;-73
2023/07/18 06:57:48;;;;;;;7.10;2.38;;;;;;;15.62;81.93;101945.69;5028633;28;20411;-74
2023/07/18 07:00:14;;;;;;;4.10;1.80;;;;;;;15.72;82.30;101942.31;5016508;28;20050;-73
2023/07/18 07:02:39;;;;;;;6.28;1.83;;;;;;;15.82;81.36;101940.63;4992412;28;20030;-73
2023/07/18 07:05:05;;;;;;;5.78;1.73;;;;;;;15.96;79.33;101948.31;5017623;28;20036;-73
2023/07/18 07:07:31;;;;;;;3.90;1.63;;;;;;;16.11;77.98;101952.44;5029934;28;20025;-76
2023/07/18 07:09:56;;;;;;;4.00;1.63;;;;;;;16.27;76.93;101947.56;5029397;28;20025;-75
2023/07/18 07:12:21;;;;;;;6.32;1.52;;;;;;;16.44;75.23;101942.72;5030040;28;20025;-75
2023/07/18 07:14:47;;;;;;;3.90;1.42;;;;;;;16.70;75.10;101953.91;5029895;28;20089;-75
2023/07/18 07:17:12;;;;;;;4.57;1.33;;;;;;;16.96;73.59;101954.41;5015185;28;20449;-74
2023/07/18 07:19:38;;;;;;;5.63;1.70;;;;;;;17.25;74.46;101952.81;5010272;28;20030;-75
2023/07/18 07:22:03;;;;;;;3.85;1.48;;;;;;;17.51;72.05;101950.59;5021837;28;20390;-75
2023/07/18 07:24:30;;;;;;;5.03;1.75;;;;;;;17.73;71.85;101945.16;5033072;28;20047;-75
2023/07/18 07:26:55;;;;;;;5.32;1.60;;;;;;;17.99;71.72;101948.19;5015352;28;20026;-75
2023/07/18 07:29:21;;;;;;;5.00;1.60;;;;;;;18.29;68.70;101941.13;5033776;28;20037;-74
2023/07/18 07:31:46;;;;;;;4.03;1.05;;;;;;;18.41;64.56;101942.69;5032850;28;20025;-74
2023/07/18 07:34:11;;;;;;;4.20;1.30;;;;;;;18.61;64.65;101943.56;5022104;28;20044;-74
2023/07/18 07:36:39;;;;;;;3.38;0.93;;;;;;;18.88;64.65;101942.94;5029232;28;20022;-75
2023/07/18 07:39:10;;;;;;;3.08;1.17;;;;;;;19.04;64.26;101943.19;5022291;28;20021;-75
2023/07/18 07:41:35;;;;;;;2.58;0.95;;;;;;;19.37;62.88;101939.22;5006298;28;20025;-75
2023/07/18 07:44:01;;;;;;;2.75;1.13;;;;;;;19.55;61.37;101939.34;5006028;28;20350;-74
2023/07/18 07:46:26;;;;;;;5.55;1.02;;;;;;;19.68;58.55;101946.06;5004333;28;20029;-74
2023/07/18 07:48:54;;;;;;;1.83;0.98;;;;;;;19.87;58.07;101939.78;5020108;28;20101;-75
2023/07/18 07:51:20;;;;;;;3.38;1.00;;;;;;;19.94;56.55;101940.88;5025371;28;20029;-75
2023/07/18 07:53:46;;;;;;;2.47;0.95;;;;;;;20.06;57.38;101935.34;5029773;28;20040;-75
2023/07/18 07:56:11;;;;;;;3.63;0.93;;;;;;;20.45;55.72;101941.34;5027481;28;20025;-75
2023/07/18 07:58:37;;;;;;;2.95;1.13;;;;;;;20.63;54.19;101935.00;5032443;28;20428;-74
2023/07/18 08:01:02;;;;;;;1.98;0.93;;;;;;;20.87;53.87;101938.91;5031326;28;20052;-75
2023/07/18 08:03:27;;;;;;;4.70;1.08;;;;;;;21.10;53.03;101937.41;5032722;28;20048;-75
2023/07/18 08:05:53;;;;;;;3.22;1.10;;;;;;;21.36;52.24;101931.28;5029655;28;20052;-75
2023/07/18 08:08:18;;;;;;;4.22;0.90;;;;;;;21.50;50.38;101922.66;5023369;28;20032;-75
2023/07/18 08:10:44;;;;;;;3.47;1.00;;;;;;;21.78;50.81;101934.88;5032881;28;20029;-75
2023/07/18 08:13:10;;;;;;;2.38;0.90;;;;;;;21.82;50.50;101922.84;5038303;28;20466;-75
2023/07/18 08:15:35;;;;;;;2.38;0.85;;;;;;;21.97;49.61;101922.22;5033033;28;20496;-74
2023/07/18 08:18:01;;;;;;;3.53;0.95;;;;;;;22.13;48.15;101914.28;5032401;28;20033;-74
2023/07/18 08:20:27;;;;;;;1.90;0.70;;;;;;;22.20;47.15;101921.50;5031973;28;20032;-74
2023/07/18 08:22:54;;;;;;;2.17;0.60;;;;;;;22.01;47.63;101921.72;5027920;28;20037;-75
2023/07/18 08:25:20;;;;;;;2.10;0.70;;;;;;;22.10;47.91;101919.97;5028448;28;20604;-74
2023/07/18 08:27:45;;;;;;;3.85;0.60;;;;;;;22.05;46.65;101916.94;5034953;28;20028;-74
2023/07/18 08:30:11;;;;;;;2.67;0.70;;;;;;;22.18;48.00;101906.59;5042580;28;20397;-75
2023/07/18 08:32:37;;;;;;;4.13;0.60;;;;;;;22.47;47.06;101900.78;5031810;28;20536;-74
2023/07/18 08:35:04;;;;;;;1.67;0.55;;;;;;;22.63;45.10;101908.84;5031675;28;20036;-74
2023/07/18 08:37:29;;;;;;;2.25;0.50;;;;;;;22.79;44.96;101903.47;5032160;28;20121;-75
2023/07/18 08:39:54;;;;;;;2.90;0.60;;;;;;;22.69;44.38;101896.59;5021699;28;20464;-74
2023/07/18 08:42:26;;;;;;;2.08;0.60;;;;;;;22.66;44.73;101902.31;5012830;28;20492;-74
2023/07/18 08:44:54;;;;;;;2.75;0.60;;;;;;;22.92;44.80;101894.13;5012670;28;20030;-73
2023/07/18 08:47:22;;;;;;;1.77;0.55;;;;;;;23.08;42.71;101900.31;5012281;28;20481;-74
2023/07/18 08:49:48;;;;;;;2.13;0.80;;;;;;;23.18;42.19;101896.59;5025201;28;20397;-75
2023/07/18 08:52:13;;;;;;;2.33;0.57;;;;;;;23.26;42.29;101891.25;5012409;28;20025;-74
2023/07/18 08:54:39;;;;;;;1.63;0.60;;;;;;;23.51;42.06;101894.69;5020877;28;20036;-75
2023/07/18 08:57:06;;;;;;;3.17;0.60;;;;;;;23.62;41.22;101891.69;5031677;28;20020;-75
2023/07/18 08:59:32;;;;;;;2.20;0.60;;;;;;;23.51;42.63;101882.09;5031881;28;20092;-75
2023/07/18 09:01:57;;;;;;;2.90;0.80;;;;;;;23.48;41.41;101882.44;5031058;28;20053;-74
2023/07/18 09:04:23;;;;;;;1.73;0.80;;;;;;;23.56;41.99;101877.06;5020054;28;20040;-73
2023/07/18 09:06:55;;;;;;;3.58;0.95;;;;;;;23.60;41.47;101881.09;5012131;28;20021;-73
2023/07/18 09:09:23;;;;;;;2.67;0.88;;;;;;;23.77;43.04;101879.19;5011667;28;20041;-74
2023/07/18 09:12:03;;;;;;;2.25;0.73;;;;;;;23.60;43.12;101878.41;5012141;28;20026;-75
2023/07/18 09:14:34;;;;;;;2.50;0.75;;;;;;;23.72;42.12;101871.66;4994426;28;20033;-75
2023/07/18 09:17:04;;;;;;;3.75;0.80;;;;;;;23.80;42.84;101868.09;5009592;28;20474;-75
2023/07/18 09:19:43;;;;;;;1.42;0.68;;;;;;;24.36;42.74;101863.41;5011144;28;20046;-75
2023/07/18 09:22:11;;;;;;;2.55;0.80;;;;;;;24.73;42.01;101859.94;4978187;28;20100;-75
2023/07/18 09:24:37;;;;;;;3.03;0.75;;;;;;;25.01;40.41;101856.69;5007803;28;20022;-74
2023/07/18 09:27:17;;;;;;;2.97;0.80;;;;;;;24.78;40.54;101849.44;5008930;28;20054;-76
2023/07/18 09:29:44;;;;;;;2.05;0.80;;;;;;;24.49;40.18;101850.22;4993690;28;20176;-76
2023/07/18 09:32:15;;;;;;;3.13;0.80;;;;;;;24.22;40.96;101850.72;5008403;28;20060;-76
2023/07/18 09:34:51;;;;;;;3.63;0.80;;;;;;;24.42;41.65;101843.88;4999849;28;20049;-75
2023/07/18 09:37:16;;;;;;;1.55;0.70;;;;;;;24.17;40.63;101837.81;5009358;28;20552;-75
2023/07/18 09:39:42;;;;;;;2.90;0.77;;;;;;;24.01;39.76;101835.19;5011095;28;20025;-76
2023/07/18 09:42:08;;;;;;;2.92;0.80;;;;;;;24.46;42.64;101842.50;5011692;28;20026;-76
2023/07/18 09:44:35;;;;;;;1.50;0.85;;;;;;;24.16;39.99;101836.13;5008522;28;20114;-77
2023/07/18 09:47:01;;;;;;;1.95;0.80;;;;;;;24.07;41.07;101842.56;5028811;28;20028;-77
2023/07/18 09:49:28;;;;;;;2.47;0.90;;;;;;;23.84;41.56;101841.69;5010411;28;20478;-76
2023/07/18 09:52:02;;;;;;;4.20;1.00;;;;;;;23.67;41.90;101849.84;4991822;28;20099;-74
2023/07/18 09:54:33;;;;;;;2.08;1.15;;;;;;;23.38;42.50;101846.91;4973806;28;20034;-74
2023/07/18 09:57:19;;;;;;;2.47;0.90;;;;;;;23.76;43.49;101845.25;5004803;28;20120;-76
2023/07/18 09:59:48;;;;;;;3.35;0.93;;;;;;;23.84;41.93;101836.31;5008506;28;20044;-75
2023/07/18 10:02:14;;;;;;;3.50;0.80;;;;;;;24.12;41.76;101832.13;5009855;28;20045;-75
2023/07/18 10:04:40;;;;;;;2.83;0.80;;;;;;;24.29;39.48;101832.88;5008990;28;20041;-74
2023/07/18 10:07:08;;;;;;;2.65;0.80;;;;;;;24.25;40.39;101835.03;5010222;28;20026;-75
2023/07/18 10:09:35;;;;;;;3.63;0.73;;;;;;;24.17;40.53;101824.34;4993391;28;20386;-75
2023/07/18 10:12:03;;;;;;;3.40;0.82;;;;;;;24.06;39.53;101827.47;5010349;28;20109;-74
2023/07/18 10:14:29;;;;;;;3.75;0.90;;;;;;;23.96;39.97;101819.59;5005968;28;20121;-75
2023/07/18 10:16:55;;;;;;;2.25;0.80;;;;;;;24.31;40.68;101810.16;5008764;28;20034;-75
2023/07/18 10:19:24;;;;;;;3.67;1.00;;;;;;;24.25;40.90;101800.06;4991737;28;20501;-75
2023/07/18 10:21:52;;;;;;;2.53;0.70;;;;;;;24.76;40.37;101802.19;5001709;28;20034;-73
2023/07/18 10:24:20;;;;;;;2.83;0.70;;;;;;;24.50;39.56;101802.63;5008403;28;20042;-76
2023/07/18 10:26:58;;;;;;;4.00;0.90;;;;;;;24.41;42.33;101791.06;5008496;28;20025;-75
2023/07/18 10:29:28;;;;;;;1.75;0.80;;;;;;;24.27;40.74;101795.38;5010381;28;20056;-75
2023/07/18 10:31:53;;;;;;;1.27;0.70;;;;;;;24.09;40.84;101792.16;4990087;28;20538;-75
2023/07/18 10:34:18;;;;;;;1.65;0.70;;;;;;;24.03;42.40;101798.25;4990497;28;20034;-74
2023/07/18 10:36:54;;;;;;;1.40;0.70;;;;;;;24.15;40.98;101788.72;4995192;28;20478;-75
2023/07/18 10:39:34;;;;;;;3.00;0.60;;;;;;;24.45;42.41;101786.19;4992179;28;20033;-75
2023/07/18 10:42:05;;;;;;;2.55;0.80;;;;;;;24.66;41.02;101789.00;4991615;28;20022;-74
2023/07/18 10:44:31;;;;;;;2.40;0.70;;;;;;;24.74;39.44;101786.22;5010336;28;20052;-75
2023/07/18 10:46:56;;;;;;;4.05;1.48;;;;;;;24.27;39.28;101789.13;5009787;28;20402;-75
2023/07/18 10:49:29;;;;;;;4.10;1.00;;;;;;;24.21;41.36;101788.00;4989448;28;20026;-75
2023/07/18 10:51:54;;;;;;;3.95;1.17;;;;;;;24.12;40.78;101778.34;5009327;28;20382;-74
2023/07/18 10:54:20;;;;;;;1.27;0.60;;;;;;;24.02;42.12;101772.38;5005250;28;20022;-75
2023/07/18 10:56:47;;;;;;;2.08;0.80;;;;;;;23.83;40.58;101780.88;5013425;28;20701;-76
2023/07/18 10:59:13;;;;;;;4.25;1.05;;;;;;;24.03;40.95;101776.72;5006707;28;20076;-75
2023/07/18 11:01:39;;;;;;;2.60;0.73;;;;;;;24.17;40.87;101770.56;5022582;28;20412;-76
2023/07/18 11:04:06;;;;;;;5.72;0.85;;;;;;;24.38;41.93;101776.13;5008867;28;20030;-75
2023/07/18 11:06:32;;;;;;;12.60;1.50;;;;;;;24.46;40.99;101777.09;4997337;28;22837;-75
2023/07/18 11:08:57;;;;;;;5.32;1.00;;;;;;;24.55;41.84;101776.00;5009329;28;20030;-76
2023/07/18 11:11:22;;;;;;;6.00;1.17;;;;;;;24.71;39.67;101775.81;5010171;28;20509;-75
2023/07/18 11:13:48;;;;;;;6.57;1.00;;;;;;;25.12;39.51;101770.88;5010206;28;20040;-76
2023/07/18 11:16:15;;;;;;;3.67;0.95;;;;;;;25.08;40.82;101766.88;5010079;28;20033;-75
2023/07/18 11:18:43;;;;;;;3.70;1.05;;;;;;;25.15;40.44;101767.81;5029026;28;20021;-76
2023/07/18 11:21:09;;;;;;;3.28;0.90;;;;;;;25.11;38.69;101760.28;5027677;28;20125;-74